Ellisburg, Pennsylvania
Current Conditions -  °F | °C
As of 2:56 AM on Thursday 27 Nov 2014 (Local Time) from KELZ Reporting Station
Overcast Overcast  
Wind Chill: 18°   Ceiling: 800
Heat Index: 26°   Visibility: 10mi
Dew Point: 22°   Wind: 8mph
Humidity: 84%   Direction: 340°NNW
Pressure: 29.95"   Gusts: NA
Location:  41.915°N, 77.8855°W
Report Text: KELZ 270756Z AUTO 34007KT 10SM OVC008 M03/M06 A2995 RMK AO2 SNE01 CIG 005V010 SLP168 P0000 T10331056
Loading
Personal Weather Stations






























Interactive Weather Map New forecast layout! Learn more

10-Day Weather Forecast

Advertisements
Track Severe Weather on mobile